CheckWX is a tool to help pilots better visualize weather data.  It is not intended as a substitute for an official pre-flight weather briefing.

17:30:06 UTC

KOTM TAF
Ottumwa Regional Airport
Ottumwa, Iowa, USA
KOTM 181401Z 1814/1912 17006KT 5SM -RA BR VCTS SCT030 BKN040CB BKN110 FM181700 20012G18KT P6SM VCSH BKN050 FM182000 24010KT P6SM VCSH SCT100 FM182300 28008KT P6SM SCT080

Aug-18@
14:00 UTC

Aug-18 @ 14:00 UTC

Aug-18@
17:00 UTC

Aug-18 @ 17:00 UTC

KOTM 181401Z 1814/1912 17006KT 5SM -RA BR VCTS SCT030 BKN040CB BKN110

Expired

Wind
  • 170° at 6 KTS
Conditions
Light Rain, Mist, Area Thunderstorm
Cloud Levels
  • Scattered at 3,000' AGL
  • Broken at 4,000' AGL
  • Broken at 11,000' AGL

Aug-18@
17:00 UTC

Aug-18 @ 17:00 UTC

Aug-18@
20:00 UTC

Aug-18 @ 20:00 UTC

FM181700 20012G18KT P6SM VCSH BKN050

From

From Standard forecast or significant change

Wind
  • 200° at 12 KTS
  • {Gusting to 18 KTS
Cloud Levels
  • Broken at 5,000' AGL

Aug-18@
20:00 UTC

Aug-18 @ 20:00 UTC

Aug-18@
23:00 UTC

Aug-18 @ 23:00 UTC

FM182000 24010KT P6SM VCSH SCT100

From

From Standard forecast or significant change

Wind
  • 240° at 10 KTS
Cloud Levels
  • Scattered at 10,000' AGL

Aug-18@
23:00 UTC

Aug-18 @ 23:00 UTC

Aug-19@
12:00 UTC

Aug-19 @ 12:00 UTC

FM182300 28008KT P6SM SCT080

From

From Standard forecast or significant change

Wind
  • 280° at 8 KTS
Cloud Levels
  • Scattered at 8,000' AGL